sensor_id;sensor_type;location;lat;lon;timestamp;P1;durP1;ratioP1;P2;durP2;ratioP2
38865;SDS011;62686;48.984;8.394;2023-02-12T00:01:38;21.27;;;15.37;;
38865;SDS011;62686;48.984;8.394;2023-02-12T00:04:06;19.33;;;15.33;;
38865;SDS011;62686;48.984;8.394;2023-02-12T00:06:36;20.73;;;15.07;;
38865;SDS011;62686;48.984;8.394;2023-02-12T00:09:05;19.63;;;14.83;;
38865;SDS011;62686;48.984;8.394;2023-02-12T00:11:35;22.57;;;16.13;;
38865;SDS011;62686;48.984;8.394;2023-02-12T00:14:10;20.43;;;14.80;;
38865;SDS011;62686;48.984;8.394;2023-02-12T00:16:38;19.17;;;14.87;;
38865;SDS011;62686;48.984;8.394;2023-02-12T00:19:07;20.97;;;15.90;;
38865;SDS011;62686;48.984;8.394;2023-02-12T00:21:38;20.27;;;14.60;;
38865;SDS011;62686;48.984;8.394;2023-02-12T00:24:06;22.10;;;15.53;;
38865;SDS011;62686;48.984;8.394;2023-02-12T00:26:37;20.63;;;15.43;;
38865;SDS011;62686;48.984;8.394;2023-02-12T00:29:08;19.43;;;16.10;;
38865;SDS011;62686;48.984;8.394;2023-02-12T00:31:37;19.93;;;15.03;;
38865;SDS011;62686;48.984;8.394;2023-02-12T00:34:05;22.23;;;15.87;;
38865;SDS011;62686;48.984;8.394;2023-02-12T00:36:33;22.97;;;16.13;;
38865;SDS011;62686;48.984;8.394;2023-02-12T00:39:02;22.30;;;16.20;;
38865;SDS011;62686;48.984;8.394;2023-02-12T00:41:31;25.03;;;17.47;;
38865;SDS011;62686;48.984;8.394;2023-02-12T00:44:02;23.47;;;17.13;;
38865;SDS011;62686;48.984;8.394;2023-02-12T00:46:31;23.03;;;17.63;;
38865;SDS011;62686;48.984;8.394;2023-02-12T00:49:05;22.33;;;16.93;;
38865;SDS011;62686;48.984;8.394;2023-02-12T00:51:36;23.60;;;17.53;;
38865;SDS011;62686;48.984;8.394;2023-02-12T00:54:04;24.73;;;17.53;;
38865;SDS011;62686;48.984;8.394;2023-02-12T00:56:33;30.40;;;18.50;;
38865;SDS011;62686;48.984;8.394;2023-02-12T00:59:03;23.07;;;16.27;;
38865;SDS011;62686;48.984;8.394;2023-02-12T01:01:34;20.90;;;15.33;;
38865;SDS011;62686;48.984;8.394;2023-02-12T01:04:03;19.03;;;14.90;;
38865;SDS011;62686;48.984;8.394;2023-02-12T01:06:32;21.13;;;14.90;;
38865;SDS011;62686;48.984;8.394;2023-02-12T01:09:00;20.53;;;15.27;;
38865;SDS011;62686;48.984;8.394;2023-02-12T01:11:28;22.60;;;16.07;;
38865;SDS011;62686;48.984;8.394;2023-02-12T01:13:57;22.27;;;14.87;;
38865;SDS011;62686;48.984;8.394;2023-02-12T01:16:28;23.27;;;15.07;;
38865;SDS011;62686;48.984;8.394;2023-02-12T01:18:59;21.40;;;15.57;;
38865;SDS011;62686;48.984;8.394;2023-02-12T01:21:28;20.10;;;15.67;;
38865;SDS011;62686;48.984;8.394;2023-02-12T01:23:57;20.67;;;14.87;;
38865;SDS011;62686;48.984;8.394;2023-02-12T01:26:26;20.17;;;14.37;;
38865;SDS011;62686;48.984;8.394;2023-02-12T01:28:56;21.63;;;16.53;;
38865;SDS011;62686;48.984;8.394;2023-02-12T01:31:29;25.90;;;18.33;;
38865;SDS011;62686;48.984;8.394;2023-02-12T01:33:59;26.40;;;19.00;;
38865;SDS011;62686;48.984;8.394;2023-02-12T01:36:28;26.53;;;20.60;;
38865;SDS011;62686;48.984;8.394;2023-02-12T01:38:58;28.73;;;20.20;;
38865;SDS011;62686;48.984;8.394;2023-02-12T01:41:28;27.40;;;20.00;;
38865;SDS011;62686;48.984;8.394;2023-02-12T01:44:05;26.87;;;19.90;;
38865;SDS011;62686;48.984;8.394;2023-02-12T01:46:40;28.43;;;20.07;;
38865;SDS011;62686;48.984;8.394;2023-02-12T01:49:11;25.67;;;19.27;;
38865;SDS011;62686;48.984;8.394;2023-02-12T01:51:43;26.77;;;19.80;;
38865;SDS011;62686;48.984;8.394;2023-02-12T01:54:15;26.37;;;19.53;;
38865;SDS011;62686;48.984;8.394;2023-02-12T01:56:46;26.67;;;19.43;;
38865;SDS011;62686;48.984;8.394;2023-02-12T01:59:15;23.03;;;18.40;;
38865;SDS011;62686;48.984;8.394;2023-02-12T02:01:46;28.47;;;21.00;;
38865;SDS011;62686;48.984;8.394;2023-02-12T02:04:15;28.83;;;20.83;;
38865;SDS011;62686;48.984;8.394;2023-02-12T02:06:46;30.37;;;20.33;;
38865;SDS011;62686;48.984;8.394;2023-02-12T02:09:19;24.47;;;19.40;;
38865;SDS011;62686;48.984;8.394;2023-02-12T02:11:47;29.50;;;20.37;;
38865;SDS011;62686;48.984;8.394;2023-02-12T02:14:32;29.80;;;22.13;;
38865;SDS011;62686;48.984;8.394;2023-02-12T02:17:15;28.87;;;21.23;;
38865;SDS011;62686;48.984;8.394;2023-02-12T02:20:11;26.13;;;19.63;;
38865;SDS011;62686;48.984;8.394;2023-02-12T02:23:04;29.60;;;22.00;;
38865;SDS011;62686;48.984;8.394;2023-02-12T02:25:51;29.13;;;20.73;;
38865;SDS011;62686;48.984;8.394;2023-02-12T02:28:52;27.33;;;20.53;;
38865;SDS011;62686;48.984;8.394;2023-02-12T02:31:40;26.17;;;19.30;;
38865;SDS011;62686;48.984;8.394;2023-02-12T02:34:10;26.10;;;19.70;;
38865;SDS011;62686;48.984;8.394;2023-02-12T02:36:48;24.17;;;19.07;;
38865;SDS011;62686;48.984;8.394;2023-02-12T02:39:27;27.77;;;20.37;;
38865;SDS011;62686;48.984;8.394;2023-02-12T02:42:07;24.60;;;19.47;;
38865;SDS011;62686;48.984;8.394;2023-02-12T02:44:42;29.07;;;20.67;;
38865;SDS011;62686;48.984;8.394;2023-02-12T02:47:21;28.07;;;20.50;;
38865;SDS011;62686;48.984;8.394;2023-02-12T02:49:55;26.40;;;19.53;;
38865;SDS011;62686;48.984;8.394;2023-02-12T02:52:27;29.80;;;20.47;;
38865;SDS011;62686;48.984;8.394;2023-02-12T02:55:02;27.33;;;20.53;;
38865;SDS011;62686;48.984;8.394;2023-02-12T02:57:34;26.60;;;19.13;;
38865;SDS011;62686;48.984;8.394;2023-02-12T03:00:06;25.03;;;20.43;;
38865;SDS011;62686;48.984;8.394;2023-02-12T03:02:41;24.47;;;19.63;;
38865;SDS011;62686;48.984;8.394;2023-02-12T03:05:13;27.70;;;20.10;;
38865;SDS011;62686;48.984;8.394;2023-02-12T03:07:47;26.30;;;20.00;;
38865;SDS011;62686;48.984;8.394;2023-02-12T03:10:19;27.13;;;20.07;;
38865;SDS011;62686;48.984;8.394;2023-02-12T03:12:50;27.13;;;19.93;;
38865;SDS011;62686;48.984;8.394;2023-02-12T03:15:23;26.73;;;19.67;;
38865;SDS011;62686;48.984;8.394;2023-02-12T03:17:57;26.63;;;19.87;;
38865;SDS011;62686;48.984;8.394;2023-02-12T03:20:27;26.70;;;19.97;;
38865;SDS011;62686;48.984;8.394;2023-02-12T03:22:59;25.50;;;19.50;;
38865;SDS011;62686;48.984;8.394;2023-02-12T03:25:32;25.77;;;19.10;;
38865;SDS011;62686;48.984;8.394;2023-02-12T03:28:05;28.20;;;21.23;;
38865;SDS011;62686;48.984;8.394;2023-02-12T03:30:40;28.73;;;20.60;;
38865;SDS011;62686;48.984;8.394;2023-02-12T03:33:16;26.07;;;19.10;;
38865;SDS011;62686;48.984;8.394;2023-02-12T03:35:51;26.57;;;20.00;;
38865;SDS011;62686;48.984;8.394;2023-02-12T03:38:28;26.50;;;18.63;;
38865;SDS011;62686;48.984;8.394;2023-02-12T03:41:03;26.00;;;19.23;;
38865;SDS011;62686;48.984;8.394;2023-02-12T03:43:38;24.33;;;18.70;;
38865;SDS011;62686;48.984;8.394;2023-02-12T03:46:17;25.50;;;18.60;;
38865;SDS011;62686;48.984;8.394;2023-02-12T03:48:51;23.80;;;18.37;;
38865;SDS011;62686;48.984;8.394;2023-02-12T03:51:27;26.77;;;19.13;;
38865;SDS011;62686;48.984;8.394;2023-02-12T03:53:59;25.87;;;18.37;;
38865;SDS011;62686;48.984;8.394;2023-02-12T03:56:31;23.83;;;18.23;;
38865;SDS011;62686;48.984;8.394;2023-02-12T03:59:03;25.20;;;18.93;;
38865;SDS011;62686;48.984;8.394;2023-02-12T04:01:32;23.93;;;18.33;;
38865;SDS011;62686;48.984;8.394;2023-02-12T04:04:03;23.00;;;18.43;;
38865;SDS011;62686;48.984;8.394;2023-02-12T04:06:33;25.50;;;18.67;;
38865;SDS011;62686;48.984;8.394;2023-02-12T04:09:02;26.70;;;18.77;;
38865;SDS011;62686;48.984;8.394;2023-02-12T04:11:35;23.60;;;18.10;;
38865;SDS011;62686;48.984;8.394;2023-02-12T04:14:14;24.07;;;18.00;;
38865;SDS011;62686;48.984;8.394;2023-02-12T04:16:48;27.70;;;18.37;;
38865;SDS011;62686;48.984;8.394;2023-02-12T04:19:24;25.20;;;18.23;;
38865;SDS011;62686;48.984;8.394;2023-02-12T04:22:03;26.40;;;19.57;;
38865;SDS011;62686;48.984;8.394;2023-02-12T04:24:45;24.63;;;18.90;;
38865;SDS011;62686;48.984;8.394;2023-02-12T04:27:20;24.90;;;18.50;;
38865;SDS011;62686;48.984;8.394;2023-02-12T04:29:53;22.93;;;18.00;;
38865;SDS011;62686;48.984;8.394;2023-02-12T04:32:27;25.93;;;18.30;;
38865;SDS011;62686;48.984;8.394;2023-02-12T04:35:01;25.20;;;18.20;;
38865;SDS011;62686;48.984;8.394;2023-02-12T04:37:39;25.93;;;18.50;;
38865;SDS011;62686;48.984;8.394;2023-02-12T04:40:12;26.93;;;18.93;;
38865;SDS011;62686;48.984;8.394;2023-02-12T04:42:42;27.07;;;19.30;;
38865;SDS011;62686;48.984;8.394;2023-02-12T04:45:12;25.53;;;19.03;;
38865;SDS011;62686;48.984;8.394;2023-02-12T04:47:43;26.20;;;20.10;;
38865;SDS011;62686;48.984;8.394;2023-02-12T04:50:13;25.93;;;19.77;;
38865;SDS011;62686;48.984;8.394;2023-02-12T04:52:41;26.63;;;20.73;;
38865;SDS011;62686;48.984;8.394;2023-02-12T04:55:09;27.10;;;19.57;;
38865;SDS011;62686;48.984;8.394;2023-02-12T04:57:38;27.80;;;20.77;;
38865;SDS011;62686;48.984;8.394;2023-02-12T05:00:06;25.60;;;20.17;;
38865;SDS011;62686;48.984;8.394;2023-02-12T05:02:37;26.97;;;20.90;;
38865;SDS011;62686;48.984;8.394;2023-02-12T05:05:06;27.80;;;20.67;;
38865;SDS011;62686;48.984;8.394;2023-02-12T05:07:35;27.83;;;21.70;;
38865;SDS011;62686;48.984;8.394;2023-02-12T05:10:04;28.30;;;21.10;;
38865;SDS011;62686;48.984;8.394;2023-02-12T05:12:33;28.33;;;21.13;;
38865;SDS011;62686;48.984;8.394;2023-02-12T05:15:01;29.93;;;21.07;;
38865;SDS011;62686;48.984;8.394;2023-02-12T05:17:29;28.83;;;22.13;;
38865;SDS011;62686;48.984;8.394;2023-02-12T05:19:57;25.40;;;20.20;;
38865;SDS011;62686;48.984;8.394;2023-02-12T05:22:25;30.83;;;21.60;;
38865;SDS011;62686;48.984;8.394;2023-02-12T05:24:54;28.87;;;20.97;;
38865;SDS011;62686;48.984;8.394;2023-02-12T05:27:23;26.73;;;21.30;;
38865;SDS011;62686;48.984;8.394;2023-02-12T05:30:00;28.50;;;21.17;;
38865;SDS011;62686;48.984;8.394;2023-02-12T05:32:29;30.97;;;20.30;;
38865;SDS011;62686;48.984;8.394;2023-02-12T05:34:57;27.43;;;20.90;;
38865;SDS011;62686;48.984;8.394;2023-02-12T05:37:25;30.03;;;21.37;;
38865;SDS011;62686;48.984;8.394;2023-02-12T05:39:54;27.80;;;21.17;;
38865;SDS011;62686;48.984;8.394;2023-02-12T05:42:22;29.50;;;21.70;;
38865;SDS011;62686;48.984;8.394;2023-02-12T05:44:50;27.40;;;20.97;;
38865;SDS011;62686;48.984;8.394;2023-02-12T05:47:18;30.00;;;21.20;;
38865;SDS011;62686;48.984;8.394;2023-02-12T05:49:46;28.10;;;21.17;;
38865;SDS011;62686;48.984;8.394;2023-02-12T05:52:14;26.07;;;20.50;;
38865;SDS011;62686;48.984;8.394;2023-02-12T05:54:43;30.40;;;21.53;;
38865;SDS011;62686;48.984;8.394;2023-02-12T05:57:12;34.83;;;21.17;;
38865;SDS011;62686;48.984;8.394;2023-02-12T05:59:40;25.97;;;20.57;;
38865;SDS011;62686;48.984;8.394;2023-02-12T06:02:08;25.83;;;19.83;;
38865;SDS011;62686;48.984;8.394;2023-02-12T06:04:36;29.30;;;20.97;;
38865;SDS011;62686;48.984;8.394;2023-02-12T06:07:04;25.70;;;19.57;;
38865;SDS011;62686;48.984;8.394;2023-02-12T06:09:33;28.80;;;20.97;;
38865;SDS011;62686;48.984;8.394;2023-02-12T06:12:02;23.97;;;18.13;;
38865;SDS011;62686;48.984;8.394;2023-02-12T06:14:32;25.00;;;20.17;;
38865;SDS011;62686;48.984;8.394;2023-02-12T06:17:00;25.00;;;19.83;;
38865;SDS011;62686;48.984;8.394;2023-02-12T06:19:28;27.77;;;20.00;;
38865;SDS011;62686;48.984;8.394;2023-02-12T06:21:56;29.70;;;20.97;;
38865;SDS011;62686;48.984;8.394;2023-02-12T06:24:24;23.57;;;19.83;;
38865;SDS011;62686;48.984;8.394;2023-02-12T06:26:52;23.57;;;18.77;;
38865;SDS011;62686;48.984;8.394;2023-02-12T06:29:20;24.87;;;19.30;;
38865;SDS011;62686;48.984;8.394;2023-02-12T06:31:50;24.93;;;19.27;;
38865;SDS011;62686;48.984;8.394;2023-02-12T06:34:18;26.90;;;19.63;;
38865;SDS011;62686;48.984;8.394;2023-02-12T06:36:46;27.53;;;20.07;;
38865;SDS011;62686;48.984;8.394;2023-02-12T06:39:15;25.73;;;19.50;;
38865;SDS011;62686;48.984;8.394;2023-02-12T06:41:43;28.27;;;20.60;;
38865;SDS011;62686;48.984;8.394;2023-02-12T06:44:12;23.37;;;18.90;;
38865;SDS011;62686;48.984;8.394;2023-02-12T06:46:40;28.27;;;21.10;;
38865;SDS011;62686;48.984;8.394;2023-02-12T06:49:11;31.63;;;21.43;;
38865;SDS011;62686;48.984;8.394;2023-02-12T06:51:39;27.03;;;19.97;;
38865;SDS011;62686;48.984;8.394;2023-02-12T06:54:11;26.23;;;19.90;;
38865;SDS011;62686;48.984;8.394;2023-02-12T06:56:40;28.33;;;20.20;;
38865;SDS011;62686;48.984;8.394;2023-02-12T06:59:09;28.87;;;22.03;;
38865;SDS011;62686;48.984;8.394;2023-02-12T07:01:39;29.10;;;21.63;;
38865;SDS011;62686;48.984;8.394;2023-02-12T07:04:08;30.60;;;22.03;;
38865;SDS011;62686;48.984;8.394;2023-02-12T07:06:39;30.67;;;21.67;;
38865;SDS011;62686;48.984;8.394;2023-02-12T07:09:07;30.10;;;21.80;;
38865;SDS011;62686;48.984;8.394;2023-02-12T07:11:35;32.57;;;22.77;;
38865;SDS011;62686;48.984;8.394;2023-02-12T07:14:04;30.73;;;21.80;;
38865;SDS011;62686;48.984;8.394;2023-02-12T07:16:33;32.23;;;22.60;;
38865;SDS011;62686;48.984;8.394;2023-02-12T07:19:01;29.53;;;21.60;;
38865;SDS011;62686;48.984;8.394;2023-02-12T07:21:30;31.23;;;23.13;;
38865;SDS011;62686;48.984;8.394;2023-02-12T07:23:58;32.97;;;23.80;;
38865;SDS011;62686;48.984;8.394;2023-02-12T07:26:27;32.17;;;22.70;;
38865;SDS011;62686;48.984;8.394;2023-02-12T07:28:55;29.67;;;22.60;;
38865;SDS011;62686;48.984;8.394;2023-02-12T07:31:24;34.87;;;22.90;;
38865;SDS011;62686;48.984;8.394;2023-02-12T07:33:52;30.40;;;22.57;;
38865;SDS011;62686;48.984;8.394;2023-02-12T07:36:21;33.83;;;23.00;;
38865;SDS011;62686;48.984;8.394;2023-02-12T07:38:52;30.80;;;22.77;;
38865;SDS011;62686;48.984;8.394;2023-02-12T07:41:21;33.27;;;22.77;;
38865;SDS011;62686;48.984;8.394;2023-02-12T07:43:52;28.90;;;21.80;;
38865;SDS011;62686;48.984;8.394;2023-02-12T07:46:22;31.00;;;22.23;;
38865;SDS011;62686;48.984;8.394;2023-02-12T07:48:55;29.67;;;22.07;;
38865;SDS011;62686;48.984;8.394;2023-02-12T07:51:23;31.03;;;22.87;;
38865;SDS011;62686;48.984;8.394;2023-02-12T07:53:54;30.60;;;22.20;;
38865;SDS011;62686;48.984;8.394;2023-02-12T07:56:23;28.67;;;22.13;;
38865;SDS011;62686;48.984;8.394;2023-02-12T07:58:55;34.13;;;23.00;;
38865;SDS011;62686;48.984;8.394;2023-02-12T08:01:24;30.30;;;22.33;;
38865;SDS011;62686;48.984;8.394;2023-02-12T08:03:56;29.40;;;21.73;;
38865;SDS011;62686;48.984;8.394;2023-02-12T08:06:26;31.77;;;22.43;;
38865;SDS011;62686;48.984;8.394;2023-02-12T08:08:57;32.80;;;23.97;;
38865;SDS011;62686;48.984;8.394;2023-02-12T08:11:27;30.03;;;22.63;;
38865;SDS011;62686;48.984;8.394;2023-02-12T08:13:56;32.60;;;23.87;;
38865;SDS011;62686;48.984;8.394;2023-02-12T08:16:25;33.00;;;22.20;;
38865;SDS011;62686;48.984;8.394;2023-02-12T08:18:54;31.30;;;23.20;;
38865;SDS011;62686;48.984;8.394;2023-02-12T08:21:32;34.40;;;23.50;;
38865;SDS011;62686;48.984;8.394;2023-02-12T08:24:02;33.33;;;24.20;;
38865;SDS011;62686;48.984;8.394;2023-02-12T08:26:31;28.03;;;22.20;;
38865;SDS011;62686;48.984;8.394;2023-02-12T08:29:01;32.30;;;23.00;;
38865;SDS011;62686;48.984;8.394;2023-02-12T08:31:31;33.07;;;23.63;;
38865;SDS011;62686;48.984;8.394;2023-02-12T08:34:01;30.60;;;23.63;;
38865;SDS011;62686;48.984;8.394;2023-02-12T08:36:30;28.43;;;21.93;;
38865;SDS011;62686;48.984;8.394;2023-02-12T08:39:04;31.10;;;22.90;;
38865;SDS011;62686;48.984;8.394;2023-02-12T08:41:33;27.90;;;22.67;;
38865;SDS011;62686;48.984;8.394;2023-02-12T08:44:03;29.40;;;23.17;;
38865;SDS011;62686;48.984;8.394;2023-02-12T08:46:32;31.13;;;21.70;;
38865;SDS011;62686;48.984;8.394;2023-02-12T08:49:02;29.00;;;21.00;;
38865;SDS011;62686;48.984;8.394;2023-02-12T08:51:32;31.43;;;22.13;;
38865;SDS011;62686;48.984;8.394;2023-02-12T08:54:02;28.87;;;21.70;;
38865;SDS011;62686;48.984;8.394;2023-02-12T08:56:34;26.93;;;20.50;;
38865;SDS011;62686;48.984;8.394;2023-02-12T08:59:03;24.83;;;19.33;;
38865;SDS011;62686;48.984;8.394;2023-02-12T09:01:32;27.00;;;19.40;;
38865;SDS011;62686;48.984;8.394;2023-02-12T09:04:04;26.50;;;19.60;;
38865;SDS011;62686;48.984;8.394;2023-02-12T09:06:33;28.10;;;21.03;;
38865;SDS011;62686;48.984;8.394;2023-02-12T09:09:02;26.33;;;19.77;;
38865;SDS011;62686;48.984;8.394;2023-02-12T09:11:32;28.33;;;20.37;;
38865;SDS011;62686;48.984;8.394;2023-02-12T09:14:02;29.20;;;20.47;;
38865;SDS011;62686;48.984;8.394;2023-02-12T09:16:32;29.20;;;19.80;;
38865;SDS011;62686;48.984;8.394;2023-02-12T09:19:01;24.07;;;18.90;;
38865;SDS011;62686;48.984;8.394;2023-02-12T09:21:30;24.07;;;17.40;;
38865;SDS011;62686;48.984;8.394;2023-02-12T09:23:59;23.47;;;17.83;;
38865;SDS011;62686;48.984;8.394;2023-02-12T09:26:28;24.57;;;18.73;;
38865;SDS011;62686;48.984;8.394;2023-02-12T09:29:00;27.63;;;20.27;;
38865;SDS011;62686;48.984;8.394;2023-02-12T09:31:29;22.97;;;18.50;;
38865;SDS011;62686;48.984;8.394;2023-02-12T09:33:59;30.23;;;20.67;;
38865;SDS011;62686;48.984;8.394;2023-02-12T09:36:28;29.57;;;20.87;;
38865;SDS011;62686;48.984;8.394;2023-02-12T09:38:56;32.23;;;22.27;;
38865;SDS011;62686;48.984;8.394;2023-02-12T09:41:35;29.87;;;22.53;;
38865;SDS011;62686;48.984;8.394;2023-02-12T09:44:20;28.97;;;22.00;;
38865;SDS011;62686;48.984;8.394;2023-02-12T09:46:53;28.50;;;21.53;;
38865;SDS011;62686;48.984;8.394;2023-02-12T09:49:32;29.57;;;22.93;;
38865;SDS011;62686;48.984;8.394;2023-02-12T09:52:16;30.13;;;22.53;;
38865;SDS011;62686;48.984;8.394;2023-02-12T09:54:47;28.07;;;22.13;;
38865;SDS011;62686;48.984;8.394;2023-02-12T09:57:16;31.00;;;21.13;;
38865;SDS011;62686;48.984;8.394;2023-02-12T09:59:51;26.40;;;21.02;;
38865;SDS011;62686;48.984;8.394;2023-02-12T10:02:24;26.97;;;20.67;;
38865;SDS011;62686;48.984;8.394;2023-02-12T10:04:52;25.93;;;19.80;;
38865;SDS011;62686;48.984;8.394;2023-02-12T10:07:30;29.23;;;20.50;;
38865;SDS011;62686;48.984;8.394;2023-02-12T10:10:19;26.17;;;20.90;;
38865;SDS011;62686;48.984;8.394;2023-02-12T10:12:59;26.40;;;20.73;;
38865;SDS011;62686;48.984;8.394;2023-02-12T10:15:36;29.20;;;21.95;;
38865;SDS011;62686;48.984;8.394;2023-02-12T10:18:19;24.27;;;19.73;;
38865;SDS011;62686;48.984;8.394;2023-02-12T10:21:05;26.37;;;19.90;;
38865;SDS011;62686;48.984;8.394;2023-02-12T10:24:04;30.77;;;19.30;;
38865;SDS011;62686;48.984;8.394;2023-02-12T10:26:51;23.60;;;18.40;;
38865;SDS011;62686;48.984;8.394;2023-02-12T10:29:25;24.37;;;19.47;;
38865;SDS011;62686;48.984;8.394;2023-02-12T10:31:59;25.20;;;18.75;;
38865;SDS011;62686;48.984;8.394;2023-02-12T10:34:32;22.10;;;17.00;;
38865;SDS011;62686;48.984;8.394;2023-02-12T10:37:02;22.17;;;16.85;;
38865;SDS011;62686;48.984;8.394;2023-02-12T10:39:36;16.47;;;12.17;;
38865;SDS011;62686;48.984;8.394;2023-02-12T10:42:15;13.70;;;10.40;;
38865;SDS011;62686;48.984;8.394;2023-02-12T10:44:46;11.73;;;9.20;;
38865;SDS011;62686;48.984;8.394;2023-02-12T10:47:16;11.07;;;7.83;;
38865;SDS011;62686;48.984;8.394;2023-02-12T10:49:47;11.17;;;8.10;;
38865;SDS011;62686;48.984;8.394;2023-02-12T10:52:20;9.37;;;7.07;;
38865;SDS011;62686;48.984;8.394;2023-02-12T10:54:59;9.57;;;5.80;;
38865;SDS011;62686;48.984;8.394;2023-02-12T10:57:28;5.57;;;4.40;;
38865;SDS011;62686;48.984;8.394;2023-02-12T11:00:13;5.70;;;4.63;;
38865;SDS011;62686;48.984;8.394;2023-02-12T11:02:59;7.50;;;5.77;;
38865;SDS011;62686;48.984;8.394;2023-02-12T11:05:30;5.93;;;4.45;;
38865;SDS011;62686;48.984;8.394;2023-02-12T11:08:00;7.33;;;5.50;;
38865;SDS011;62686;48.984;8.394;2023-02-12T11:10:30;8.30;;;6.70;;
38865;SDS011;62686;48.984;8.394;2023-02-12T11:12:59;7.73;;;6.13;;
38865;SDS011;62686;48.984;8.394;2023-02-12T11:15:29;8.13;;;6.57;;
38865;SDS011;62686;48.984;8.394;2023-02-12T11:18:05;8.10;;;6.00;;
38865;SDS011;62686;48.984;8.394;2023-02-12T11:20:36;9.00;;;5.70;;
38865;SDS011;62686;48.984;8.394;2023-02-12T11:23:22;6.70;;;5.30;;
38865;SDS011;62686;48.984;8.394;2023-02-12T11:25:54;6.97;;;5.70;;
38865;SDS011;62686;48.984;8.394;2023-02-12T11:28:24;9.07;;;5.67;;
38865;SDS011;62686;48.984;8.394;2023-02-12T11:30:54;6.83;;;5.03;;
38865;SDS011;62686;48.984;8.394;2023-02-12T11:33:27;8.33;;;5.77;;
38865;SDS011;62686;48.984;8.394;2023-02-12T11:36:02;7.27;;;6.00;;
38865;SDS011;62686;48.984;8.394;2023-02-12T11:38:34;8.70;;;6.27;;
38865;SDS011;62686;48.984;8.394;2023-02-12T11:41:06;6.00;;;5.40;;
38865;SDS011;62686;48.984;8.394;2023-02-12T11:43:44;6.17;;;5.37;;
38865;SDS011;62686;48.984;8.394;2023-02-12T11:46:16;8.57;;;6.80;;
38865;SDS011;62686;48.984;8.394;2023-02-12T11:48:48;9.03;;;6.90;;
38865;SDS011;62686;48.984;8.394;2023-02-12T11:51:20;8.30;;;6.50;;
38865;SDS011;62686;48.984;8.394;2023-02-12T11:53:55;7.87;;;6.40;;
38865;SDS011;62686;48.984;8.394;2023-02-12T11:56:26;8.27;;;6.70;;
38865;SDS011;62686;48.984;8.394;2023-02-12T11:59:10;9.27;;;6.77;;
38865;SDS011;62686;48.984;8.394;2023-02-12T12:01:47;9.03;;;7.07;;
38865;SDS011;62686;48.984;8.394;2023-02-12T12:04:19;9.00;;;7.47;;
38865;SDS011;62686;48.984;8.394;2023-02-12T12:06:50;8.83;;;7.13;;
38865;SDS011;62686;48.984;8.394;2023-02-12T12:09:23;8.63;;;7.03;;
38865;SDS011;62686;48.984;8.394;2023-02-12T12:11:56;8.80;;;7.47;;
38865;SDS011;62686;48.984;8.394;2023-02-12T12:14:30;10.73;;;6.90;;
38865;SDS011;62686;48.984;8.394;2023-02-12T12:17:23;8.90;;;7.13;;
38865;SDS011;62686;48.984;8.394;2023-02-12T12:20:14;9.25;;;7.72;;
38865;SDS011;62686;48.984;8.394;2023-02-12T12:22:49;11.90;;;8.15;;
38865;SDS011;62686;48.984;8.394;2023-02-12T12:25:21;12.93;;;9.10;;
38865;SDS011;62686;48.984;8.394;2023-02-12T12:27:57;10.05;;;8.52;;
38865;SDS011;62686;48.984;8.394;2023-02-12T12:30:38;11.32;;;8.52;;
38865;SDS011;62686;48.984;8.394;2023-02-12T12:33:16;12.13;;;9.15;;
38865;SDS011;62686;48.984;8.394;2023-02-12T12:35:57;11.95;;;10.48;;
38865;SDS011;62686;48.984;8.394;2023-02-12T12:38:36;13.30;;;10.27;;
38865;SDS011;62686;48.984;8.394;2023-02-12T12:41:14;13.40;;;10.68;;
38865;SDS011;62686;48.984;8.394;2023-02-12T12:43:54;14.93;;;10.68;;
38865;SDS011;62686;48.984;8.394;2023-02-12T12:46:39;13.07;;;9.52;;
38865;SDS011;62686;48.984;8.394;2023-02-12T12:49:19;12.48;;;9.65;;
38865;SDS011;62686;48.984;8.394;2023-02-12T12:52:14;11.35;;;9.70;;
38865;SDS011;62686;48.984;8.394;2023-02-12T12:55:06;12.52;;;9.23;;
38865;SDS011;62686;48.984;8.394;2023-02-12T12:57:45;10.68;;;8.85;;
38865;SDS011;62686;48.984;8.394;2023-02-12T13:00:37;12.23;;;9.32;;
38865;SDS011;62686;48.984;8.394;2023-02-12T13:03:21;10.35;;;8.63;;
38865;SDS011;62686;48.984;8.394;2023-02-12T13:06:20;9.93;;;7.95;;
38865;SDS011;62686;48.984;8.394;2023-02-12T13:09:14;10.75;;;8.45;;
38865;SDS011;62686;48.984;8.394;2023-02-12T13:11:58;11.30;;;7.93;;
38865;SDS011;62686;48.984;8.394;2023-02-12T13:14:44;9.90;;;7.97;;
38865;SDS011;62686;48.984;8.394;2023-02-12T13:17:22;11.77;;;8.02;;
38865;SDS011;62686;48.984;8.394;2023-02-12T13:19:56;10.30;;;7.85;;
38865;SDS011;62686;48.984;8.394;2023-02-12T13:22:32;10.43;;;8.55;;
38865;SDS011;62686;48.984;8.394;2023-02-12T13:25:14;10.35;;;8.65;;
38865;SDS011;62686;48.984;8.394;2023-02-12T13:27:48;10.90;;;9.45;;
38865;SDS011;62686;48.984;8.394;2023-02-12T13:30:19;10.13;;;7.68;;
38865;SDS011;62686;48.984;8.394;2023-02-12T13:33:00;9.50;;;8.02;;
38865;SDS011;62686;48.984;8.394;2023-02-12T13:35:32;11.27;;;7.95;;
38865;SDS011;62686;48.984;8.394;2023-02-12T13:38:04;11.30;;;8.57;;
38865;SDS011;62686;48.984;8.394;2023-02-12T13:40:36;11.98;;;8.45;;
38865;SDS011;62686;48.984;8.394;2023-02-12T13:43:05;10.23;;;7.93;;
38865;SDS011;62686;48.984;8.394;2023-02-12T13:45:43;10.73;;;8.18;;
38865;SDS011;62686;48.984;8.394;2023-02-12T13:48:22;8.98;;;7.53;;
38865;SDS011;62686;48.984;8.394;2023-02-12T13:51:04;9.00;;;7.78;;
38865;SDS011;62686;48.984;8.394;2023-02-12T13:53:44;8.68;;;7.30;;
38865;SDS011;62686;48.984;8.394;2023-02-12T13:56:28;10.25;;;6.38;;
38865;SDS011;62686;48.984;8.394;2023-02-12T13:59:13;11.15;;;7.78;;
38865;SDS011;62686;48.984;8.394;2023-02-12T14:05:19;8.68;;;6.63;;
38865;SDS011;62686;48.984;8.394;2023-02-12T14:07:58;9.40;;;7.05;;
38865;SDS011;62686;48.984;8.394;2023-02-12T14:10:30;7.25;;;6.13;;
38865;SDS011;62686;48.984;8.394;2023-02-12T14:15:59;6.97;;;5.13;;
38865;SDS011;62686;48.984;8.394;2023-02-12T14:18:47;6.97;;;5.50;;
38865;SDS011;62686;48.984;8.394;2023-02-12T14:27:19;9.05;;;7.05;;
38865;SDS011;62686;48.984;8.394;2023-02-12T14:32:56;8.13;;;6.72;;
38865;SDS011;62686;48.984;8.394;2023-02-12T14:35:30;7.43;;;6.22;;
38865;SDS011;62686;48.984;8.394;2023-02-12T14:38:00;7.40;;;6.03;;
38865;SDS011;62686;48.984;8.394;2023-02-12T14:40:36;7.85;;;6.45;;
38865;SDS011;62686;48.984;8.394;2023-02-12T14:43:22;10.52;;;6.88;;
38865;SDS011;62686;48.984;8.394;2023-02-12T14:49:02;8.60;;;6.43;;
38865;SDS011;62686;48.984;8.394;2023-02-12T14:51:33;8.90;;;6.82;;
38865;SDS011;62686;48.984;8.394;2023-02-12T14:54:05;9.52;;;6.90;;
38865;SDS011;62686;48.984;8.394;2023-02-12T14:56:43;8.70;;;6.97;;
38865;SDS011;62686;48.984;8.394;2023-02-12T14:59:14;7.93;;;6.68;;
38865;SDS011;62686;48.984;8.394;2023-02-12T15:01:44;7.57;;;6.18;;
38865;SDS011;62686;48.984;8.394;2023-02-12T15:04:18;8.18;;;6.65;;
38865;SDS011;62686;48.984;8.394;2023-02-12T15:06:51;8.10;;;5.22;;
38865;SDS011;62686;48.984;8.394;2023-02-12T15:09:25;6.53;;;5.00;;
38865;SDS011;62686;48.984;8.394;2023-02-12T15:11:59;5.20;;;4.20;;
38865;SDS011;62686;48.984;8.394;2023-02-12T15:14:33;5.37;;;4.00;;
38865;SDS011;62686;48.984;8.394;2023-02-12T15:17:06;5.33;;;4.50;;
38865;SDS011;62686;48.984;8.394;2023-02-12T15:19:41;6.33;;;4.13;;
38865;SDS011;62686;48.984;8.394;2023-02-12T15:22:18;6.90;;;4.37;;